createdAt,value
2019-03-06T00:00:57.120Z,20.84
2019-03-06T00:03:26.046Z,20.81
2019-03-06T00:05:54.858Z,20.78
2019-03-06T00:08:23.746Z,20.76
2019-03-06T00:10:52.511Z,20.73
2019-03-06T00:13:21.308Z,20.71
2019-03-06T00:15:50.213Z,20.69
2019-03-06T00:18:19.118Z,20.68
2019-03-06T00:20:47.938Z,20.65
2019-03-06T00:23:16.746Z,20.64
2019-03-06T00:25:45.649Z,20.61
2019-03-06T00:28:14.736Z,20.60
2019-03-06T00:30:43.628Z,20.57
2019-03-06T00:33:12.431Z,20.55
2019-03-06T00:35:44.430Z,20.52
2019-03-06T00:38:13.341Z,20.50
2019-03-06T00:40:46.955Z,20.49
2019-03-06T00:43:15.817Z,20.48
2019-03-06T00:45:44.659Z,20.45
2019-03-06T00:48:13.516Z,20.43
2019-03-06T00:50:42.445Z,20.42
2019-03-06T00:53:11.244Z,20.40
2019-03-06T00:55:40.065Z,20.39
2019-03-06T00:58:08.767Z,20.39
2019-03-06T01:00:37.516Z,20.38
2019-03-06T01:03:06.345Z,20.37
2019-03-06T01:05:35.192Z,20.37
2019-03-06T01:08:04.081Z,20.37
2019-03-06T01:10:32.850Z,20.36
2019-03-06T01:13:01.719Z,20.37
2019-03-06T01:15:30.502Z,20.35
2019-03-06T01:17:59.424Z,20.35
2019-03-06T01:20:28.290Z,20.36
2019-03-06T01:22:57.158Z,20.35
2019-03-06T01:25:25.950Z,20.35
2019-03-06T01:27:54.784Z,20.34
2019-03-06T01:30:23.874Z,20.33
2019-03-06T01:32:58.244Z,20.32
2019-03-06T01:35:58.256Z,20.32
2019-03-06T01:38:44.614Z,20.28
2019-03-06T01:41:32.530Z,20.27
2019-03-06T01:44:05.510Z,20.23
2019-03-06T01:46:33.686Z,20.21
2019-03-06T01:49:02.456Z,20.20
2019-03-06T01:51:31.375Z,20.18
2019-03-06T01:54:00.171Z,20.16
2019-03-06T01:56:29.169Z,20.13
2019-03-06T01:58:57.878Z,20.12
2019-03-06T02:01:26.693Z,20.10
2019-03-06T02:03:55.649Z,20.09
2019-03-06T02:06:24.543Z,20.07
2019-03-06T02:08:53.279Z,20.06
2019-03-06T02:11:22.139Z,20.03
2019-03-06T02:13:51.019Z,20.04
2019-03-06T02:16:20.003Z,20.01
2019-03-06T02:18:50.447Z,19.99
2019-03-06T02:21:19.411Z,19.99
2019-03-06T02:23:48.200Z,19.97
2019-03-06T02:26:17.040Z,19.95
2019-03-06T02:28:45.848Z,19.95
2019-03-06T02:31:14.566Z,19.94
2019-03-06T02:33:43.551Z,19.95
2019-03-06T02:36:12.406Z,19.94
2019-03-06T02:38:41.137Z,19.95
2019-03-06T02:41:10.000Z,19.95
2019-03-06T02:43:38.909Z,19.95
2019-03-06T02:46:07.697Z,19.95
2019-03-06T02:48:36.643Z,19.95
2019-03-06T02:51:05.389Z,19.95
2019-03-06T02:53:34.317Z,19.94
2019-03-06T02:56:03.422Z,19.94
2019-03-06T02:58:53.057Z,19.94
2019-03-06T03:01:41.721Z,19.93
2019-03-06T03:04:15.972Z,19.92
2019-03-06T03:06:51.204Z,19.90
2019-03-06T03:09:20.404Z,19.89
2019-03-06T03:11:49.255Z,19.88
2019-03-06T03:14:18.212Z,19.87
2019-03-06T03:16:47.100Z,19.86
2019-03-06T03:19:15.905Z,19.85
2019-03-06T03:21:44.813Z,19.85
2019-03-06T03:24:13.656Z,19.83
2019-03-06T03:26:42.478Z,19.81
2019-03-06T03:29:11.391Z,19.80
2019-03-06T03:31:40.242Z,19.79
2019-03-06T03:34:09.130Z,19.77
2019-03-06T03:36:37.863Z,19.75
2019-03-06T03:39:07.878Z,19.75
2019-03-06T03:41:36.737Z,19.74
2019-03-06T03:44:05.478Z,19.72
2019-03-06T03:46:34.206Z,19.71
2019-03-06T03:49:03.184Z,19.70
2019-03-06T03:51:32.208Z,19.69
2019-03-06T03:54:00.931Z,19.68
2019-03-06T03:56:29.845Z,19.67
2019-03-06T03:58:58.635Z,19.66
2019-03-06T04:01:27.423Z,19.64
2019-03-06T04:03:56.317Z,19.62
2019-03-06T04:06:25.284Z,19.61
2019-03-06T04:08:54.028Z,19.60
2019-03-06T04:11:23.001Z,19.60
2019-03-06T04:13:51.866Z,19.58
2019-03-06T04:16:20.597Z,19.57
2019-03-06T04:18:49.420Z,19.55
2019-03-06T04:21:18.440Z,19.54
2019-03-06T04:23:47.282Z,19.53
2019-03-06T04:26:16.199Z,19.51
2019-03-06T04:28:45.014Z,19.49
2019-03-06T04:31:14.109Z,19.49
2019-03-06T04:33:42.927Z,19.47
2019-03-06T04:36:11.833Z,19.47
2019-03-06T04:38:40.603Z,19.48
2019-03-06T04:41:09.593Z,19.47
2019-03-06T04:43:38.829Z,19.48
2019-03-06T04:46:07.745Z,19.48
2019-03-06T04:48:36.569Z,19.49
2019-03-06T04:51:05.559Z,19.49
2019-03-06T04:53:34.414Z,19.50
2019-03-06T04:56:03.244Z,19.52
2019-03-06T04:58:32.223Z,19.52
2019-03-06T05:01:01.246Z,19.52
2019-03-06T05:03:30.124Z,19.54
2019-03-06T05:05:59.032Z,19.54
2019-03-06T05:08:27.894Z,19.55
2019-03-06T05:10:56.712Z,19.56
2019-03-06T05:13:25.519Z,19.56
2019-03-06T05:15:54.555Z,19.56
2019-03-06T05:18:30.562Z,19.57
2019-03-06T05:20:59.715Z,19.56
2019-03-06T05:23:28.512Z,19.57
2019-03-06T05:25:57.321Z,19.56
2019-03-06T05:28:26.259Z,19.55
2019-03-06T05:30:55.118Z,19.54
2019-03-06T05:33:24.414Z,19.53
2019-03-06T05:36:37.024Z,19.52
2019-03-06T05:39:10.201Z,19.49
2019-03-06T05:41:39.174Z,19.46
2019-03-06T05:44:08.048Z,19.45
2019-03-06T05:46:36.957Z,19.43
2019-03-06T05:49:06.012Z,19.40
2019-03-06T05:51:34.821Z,19.05
2019-03-06T05:54:03.638Z,19.37
2019-03-06T05:56:32.507Z,19.35
2019-03-06T05:59:01.274Z,19.35
2019-03-06T06:01:30.081Z,19.32
2019-03-06T06:03:58.962Z,19.31
2019-03-06T06:06:27.932Z,19.29
2019-03-06T06:08:56.652Z,19.29
2019-03-06T06:11:25.471Z,19.28
2019-03-06T06:13:54.295Z,19.27
2019-03-06T06:16:23.352Z,19.29
2019-03-06T06:18:52.224Z,19.29
2019-03-06T06:21:40.156Z,19.28
2019-03-06T06:24:18.421Z,19.29
2019-03-06T06:26:47.267Z,19.30
2019-03-06T06:29:16.158Z,19.31
2019-03-06T06:31:45.010Z,19.31
2019-03-06T06:34:14.200Z,19.31
2019-03-06T06:36:43.002Z,19.33
2019-03-06T06:39:11.899Z,19.33
2019-03-06T06:41:40.739Z,19.34
2019-03-06T06:44:09.666Z,19.37
2019-03-06T06:46:38.608Z,19.38
2019-03-06T06:49:07.372Z,19.41
2019-03-06T06:52:13.977Z,19.41
2019-03-06T06:55:08.072Z,19.44
2019-03-06T06:58:36.281Z,19.47
2019-03-06T07:02:02.351Z,19.49
2019-03-06T07:05:17.635Z,19.52
2019-03-06T07:08:20.709Z,19.55
2019-03-06T07:11:10.978Z,19.57
2019-03-06T07:13:51.332Z,19.60
2019-03-06T07:16:41.993Z,19.62
2019-03-06T07:19:14.403Z,19.64
2019-03-06T07:22:03.569Z,19.66
2019-03-06T07:24:51.419Z,19.67
2019-03-06T07:27:28.827Z,19.67
2019-03-06T07:30:16.050Z,19.68
2019-03-06T07:33:07.192Z,19.70
2019-03-06T07:36:09.164Z,19.74
2019-03-06T07:38:37.913Z,19.77
2019-03-06T07:41:24.411Z,19.78
2019-03-06T07:44:11.008Z,19.80
2019-03-06T07:46:57.464Z,19.78
2019-03-06T07:49:45.466Z,19.79
2019-03-06T07:52:34.294Z,19.80
2019-03-06T07:55:27.981Z,19.80
2019-03-06T07:58:32.853Z,19.82
2019-03-06T08:01:01.586Z,19.84
2019-03-06T08:03:47.237Z,19.83
2019-03-06T08:06:16.095Z,19.85
2019-03-06T08:08:45.234Z,19.71
2019-03-06T08:11:22.455Z,19.43
2019-03-06T08:14:00.307Z,18.89
2019-03-06T08:16:44.713Z,18.46
2019-03-06T08:19:23.345Z,18.23
2019-03-06T08:22:09.197Z,18.04
2019-03-06T08:24:57.105Z,17.94
2019-03-06T08:27:26.134Z,17.86
2019-03-06T08:29:55.144Z,17.73
2019-03-06T08:32:34.750Z,17.78
2019-03-06T08:35:03.823Z,17.87
2019-03-06T08:37:32.678Z,17.99
2019-03-06T08:40:01.411Z,18.10
2019-03-06T08:42:32.566Z,18.20
2019-03-06T08:45:01.312Z,18.26
2019-03-06T08:47:37.307Z,18.33
2019-03-06T08:50:28.295Z,18.38
2019-03-06T08:53:16.105Z,18.45
2019-03-06T08:56:07.707Z,18.51
2019-03-06T08:59:04.646Z,18.56
2019-03-06T09:02:01.254Z,18.59
2019-03-06T09:04:47.655Z,18.61
2019-03-06T09:07:34.336Z,18.65
2019-03-06T09:10:20.705Z,18.69
2019-03-06T09:13:07.466Z,18.70
2019-03-06T09:15:55.394Z,18.73
2019-03-06T09:18:52.611Z,18.54
2019-03-06T09:21:38.548Z,18.80
2019-03-06T09:24:26.435Z,18.84
2019-03-06T09:27:17.279Z,18.88
2019-03-06T09:30:17.311Z,18.92
2019-03-06T09:32:52.744Z,18.98
2019-03-06T09:35:56.045Z,19.03
2019-03-06T09:38:42.289Z,19.04
2019-03-06T09:41:32.727Z,19.04
2019-03-06T09:44:19.011Z,19.02
2019-03-06T09:47:12.957Z,19.00
2019-03-06T09:50:06.612Z,19.03
2019-03-06T09:52:56.265Z,19.07
2019-03-06T09:55:58.925Z,19.12
2019-03-06T09:58:45.259Z,19.14
2019-03-06T10:01:32.688Z,19.17
2019-03-06T10:04:17.164Z,19.17
2019-03-06T10:07:03.734Z,19.16
2019-03-06T10:09:40.964Z,19.16
2019-03-06T10:12:28.970Z,19.15
2019-03-06T10:15:16.806Z,19.14
2019-03-06T10:18:01.736Z,19.12
2019-03-06T10:20:30.892Z,19.12
2019-03-06T10:22:59.893Z,19.10
2019-03-06T10:25:30.418Z,19.09
2019-03-06T10:28:06.224Z,19.06
2019-03-06T10:30:29.985Z,19.06
2019-03-06T10:32:58.807Z,19.04
2019-03-06T10:35:27.682Z,19.02
2019-03-06T10:37:56.672Z,19.02
2019-03-06T10:40:25.560Z,19.01
2019-03-06T10:42:54.569Z,18.99
2019-03-06T10:45:23.435Z,19.00
2019-03-06T10:47:52.415Z,19.01
2019-03-06T10:50:26.682Z,19.03
2019-03-06T10:52:52.171Z,19.06
2019-03-06T10:55:21.193Z,19.06
2019-03-06T10:57:50.428Z,19.06
2019-03-06T11:00:22.937Z,19.03
2019-03-06T11:02:52.153Z,19.00
2019-03-06T11:05:28.913Z,18.96
2019-03-06T11:07:58.099Z,18.92
2019-03-06T11:10:27.174Z,18.89
2019-03-06T11:12:56.940Z,18.88
2019-03-06T11:15:25.804Z,18.88
2019-03-06T11:17:54.695Z,18.87
2019-03-06T11:20:26.404Z,18.90
2019-03-06T11:22:55.387Z,18.90
2019-03-06T11:25:24.390Z,18.90
2019-03-06T11:27:53.643Z,18.91
2019-03-06T11:30:31.637Z,18.96
2019-03-06T11:33:00.514Z,18.98
2019-03-06T11:35:29.484Z,18.98
2019-03-06T11:37:58.407Z,19.01
2019-03-06T11:40:27.471Z,19.04
2019-03-06T11:42:56.374Z,19.09
2019-03-06T11:45:25.160Z,19.13
2019-03-06T11:47:54.142Z,19.17
2019-03-06T11:50:22.982Z,19.21
2019-03-06T11:52:51.903Z,19.26
2019-03-06T11:55:21.035Z,19.28
2019-03-06T11:57:50.095Z,19.34
2019-03-06T12:00:32.739Z,19.39
2019-03-06T12:03:01.885Z,19.42
2019-03-06T12:05:30.780Z,19.41
2019-03-06T12:07:59.671Z,19.40
2019-03-06T12:10:28.410Z,19.39
2019-03-06T12:12:57.308Z,19.39
2019-03-06T12:15:26.227Z,19.37
2019-03-06T12:17:55.140Z,19.34
2019-03-06T12:20:24.167Z,19.32
2019-03-06T12:22:53.092Z,19.29
2019-03-06T12:25:22.202Z,19.26
2019-03-06T12:27:50.978Z,19.23
2019-03-06T12:30:19.923Z,19.18
2019-03-06T12:32:48.954Z,19.15
2019-03-06T12:35:17.927Z,19.12
2019-03-06T12:37:47.324Z,19.08
2019-03-06T12:40:16.469Z,19.03
2019-03-06T12:42:45.292Z,19.02
2019-03-06T12:45:15.172Z,19.02
2019-03-06T12:47:45.660Z,18.97
2019-03-06T12:50:17.231Z,18.90
2019-03-06T12:52:46.107Z,18.84
2019-03-06T12:55:15.098Z,18.79
2019-03-06T12:57:44.286Z,18.74
2019-03-06T13:00:20.671Z,18.70
2019-03-06T13:02:49.845Z,18.65
2019-03-06T13:05:18.787Z,18.59
2019-03-06T13:07:47.691Z,18.54
2019-03-06T13:10:16.673Z,18.47
2019-03-06T13:12:45.613Z,18.41
2019-03-06T13:15:16.217Z,18.38
2019-03-06T13:17:45.275Z,18.38
2019-03-06T13:20:14.216Z,18.40
2019-03-06T13:22:43.267Z,18.44
2019-03-06T13:25:12.160Z,18.47
2019-03-06T13:27:41.052Z,18.52
2019-03-06T13:30:11.647Z,18.56
2019-03-06T13:32:55.687Z,18.58
2019-03-06T13:35:24.698Z,18.56
2019-03-06T13:37:53.655Z,18.56
2019-03-06T13:40:22.556Z,18.54
2019-03-06T13:42:51.396Z,18.54
2019-03-06T13:45:20.826Z,18.52
2019-03-06T13:47:51.022Z,18.54
2019-03-06T13:50:20.239Z,18.52
2019-03-06T13:52:49.177Z,18.52
2019-03-06T13:55:18.209Z,18.52
2019-03-06T13:57:47.076Z,18.53
2019-03-06T14:00:17.218Z,18.54
2019-03-06T14:02:46.112Z,18.55
2019-03-06T14:05:15.454Z,18.55
2019-03-06T14:07:44.599Z,18.55
2019-03-06T14:10:14.783Z,18.54
2019-03-06T14:12:44.006Z,18.53
2019-03-06T14:15:13.002Z,18.51
2019-03-06T14:17:41.950Z,18.49
2019-03-06T14:20:10.878Z,18.48
2019-03-06T14:22:39.802Z,18.47
2019-03-06T14:25:08.784Z,18.46
2019-03-06T14:27:37.716Z,18.45
2019-03-06T14:30:08.407Z,18.43
2019-03-06T14:32:38.636Z,18.43
2019-03-06T14:35:07.798Z,18.41
2019-03-06T14:37:36.669Z,18.40
2019-03-06T14:40:10.072Z,18.39
2019-03-06T14:42:38.462Z,18.38
2019-03-06T14:45:08.693Z,18.36
2019-03-06T14:47:37.583Z,18.35
2019-03-06T14:50:06.971Z,18.33
2019-03-06T14:52:36.081Z,18.32
2019-03-06T14:55:04.942Z,18.31
2019-03-06T14:57:34.561Z,18.30
2019-03-06T15:00:03.632Z,18.30
2019-03-06T15:02:32.444Z,18.28
2019-03-06T15:05:01.395Z,18.26
2019-03-06T15:07:30.402Z,18.25
2019-03-06T15:09:59.462Z,18.23
2019-03-06T15:12:29.126Z,18.21
2019-03-06T15:14:58.202Z,18.19
2019-03-06T15:17:27.347Z,18.18
2019-03-06T15:19:56.530Z,18.18
2019-03-06T15:22:25.598Z,18.17
2019-03-06T15:24:54.790Z,18.17
2019-03-06T15:27:23.912Z,18.17
2019-03-06T15:29:52.924Z,18.16
2019-03-06T15:32:21.838Z,18.16
2019-03-06T15:34:50.918Z,18.17
2019-03-06T15:37:19.764Z,18.21
2019-03-06T15:39:48.971Z,18.29
2019-03-06T15:42:17.978Z,18.43
2019-03-06T15:44:46.862Z,18.64
2019-03-06T15:47:15.701Z,18.87
2019-03-06T15:49:46.319Z,19.13
2019-03-06T15:52:15.342Z,19.37
2019-03-06T15:54:44.530Z,19.58
2019-03-06T15:57:13.619Z,19.75
2019-03-06T15:59:42.589Z,19.92
2019-03-06T16:02:12.072Z,20.11
2019-03-06T16:04:41.565Z,20.32
2019-03-06T16:07:10.923Z,20.53
2019-03-06T16:09:40.263Z,20.75
2019-03-06T16:12:12.221Z,20.92
2019-03-06T16:14:41.063Z,21.05
2019-03-06T16:17:10.643Z,21.16
2019-03-06T16:19:39.896Z,21.24
2019-03-06T16:22:08.931Z,21.30
2019-03-06T16:24:38.023Z,21.33
2019-03-06T16:27:07.315Z,21.36
2019-03-06T16:29:36.319Z,21.36
2019-03-06T16:32:05.541Z,21.36
2019-03-06T16:34:34.506Z,21.34
2019-03-06T16:37:04.019Z,21.32
2019-03-06T16:39:33.189Z,21.26
2019-03-06T16:42:02.507Z,21.25
2019-03-06T16:44:31.566Z,21.33
2019-03-06T16:47:06.575Z,21.48
2019-03-06T16:49:32.018Z,21.69
2019-03-06T16:52:01.628Z,21.97
2019-03-06T16:54:31.691Z,22.22
2019-03-06T16:57:01.641Z,22.50
2019-03-06T16:59:31.312Z,22.71
2019-03-06T17:02:00.514Z,22.89
2019-03-06T17:04:29.886Z,23.04
2019-03-06T17:06:59.160Z,23.16
2019-03-06T17:09:29.999Z,23.26
2019-03-06T17:11:59.334Z,23.33
2019-03-06T17:14:28.906Z,23.40
2019-03-06T17:16:58.866Z,23.43
2019-03-06T17:19:28.314Z,23.43
2019-03-06T17:21:57.430Z,23.43
2019-03-06T17:24:27.169Z,23.46
2019-03-06T17:26:56.960Z,23.48
2019-03-06T17:29:26.625Z,23.46
2019-03-06T17:31:56.569Z,23.37
2019-03-06T17:34:26.480Z,23.29
2019-03-06T17:36:57.845Z,23.23
2019-03-06T17:39:27.765Z,23.16
2019-03-06T17:41:57.735Z,23.02
2019-03-06T17:44:27.699Z,22.85
2019-03-06T17:46:56.938Z,22.74
2019-03-06T17:49:26.588Z,22.70
2019-03-06T17:51:56.783Z,22.66
2019-03-06T17:54:27.454Z,22.63
2019-03-06T17:56:57.557Z,22.60
2019-03-06T17:59:27.936Z,22.56
2019-03-06T18:01:57.508Z,22.52
2019-03-06T18:04:28.470Z,22.48
2019-03-06T18:06:58.477Z,22.50
2019-03-06T18:09:28.448Z,22.62
2019-03-06T18:11:58.448Z,22.70
2019-03-06T18:14:28.380Z,22.74
2019-03-06T18:16:58.710Z,22.74
2019-03-06T18:19:28.618Z,22.78
2019-03-06T18:21:58.788Z,22.84
2019-03-06T18:24:31.156Z,22.88
2019-03-06T18:27:01.260Z,22.90
2019-03-06T18:29:31.357Z,22.93
2019-03-06T18:32:01.324Z,22.87
2019-03-06T18:34:31.657Z,22.83
2019-03-06T18:37:01.771Z,22.82
2019-03-06T18:39:31.277Z,22.81
2019-03-06T18:42:01.255Z,22.80
2019-03-06T18:44:33.131Z,22.79
2019-03-06T18:47:03.322Z,22.74
2019-03-06T18:49:33.647Z,22.69
2019-03-06T18:52:03.569Z,22.66
2019-03-06T18:54:33.263Z,22.63
2019-03-06T18:57:02.846Z,22.64
2019-03-06T18:59:32.867Z,22.66
2019-03-06T19:02:03.070Z,22.67
2019-03-06T19:04:32.960Z,22.67
2019-03-06T19:07:02.833Z,22.69
2019-03-06T19:09:33.437Z,22.65
2019-03-06T19:12:04.650Z,22.64
2019-03-06T19:14:34.548Z,22.63
2019-03-06T19:17:04.717Z,22.59
2019-03-06T19:19:34.856Z,22.54
2019-03-06T19:22:07.959Z,22.53
2019-03-06T19:24:38.262Z,21.30
2019-03-06T19:27:08.216Z,22.75
2019-03-06T19:29:38.101Z,22.91
2019-03-06T19:32:07.696Z,23.09
2019-03-06T19:34:37.497Z,23.29
2019-03-06T19:37:07.319Z,23.46
2019-03-06T19:39:36.991Z,23.62
2019-03-06T19:42:06.915Z,23.73
2019-03-06T19:44:36.322Z,23.79
2019-03-06T19:47:07.679Z,23.83
2019-03-06T19:49:37.397Z,23.86
2019-03-06T19:52:06.765Z,23.87
2019-03-06T19:54:36.572Z,23.87
2019-03-06T19:57:06.583Z,23.84
2019-03-06T19:59:36.255Z,23.80
2019-03-06T20:02:05.991Z,23.77
2019-03-06T20:04:36.158Z,23.73
2019-03-06T20:07:06.299Z,23.68
2019-03-06T20:09:36.334Z,23.56
2019-03-06T20:12:08.560Z,23.46
2019-03-06T20:14:38.707Z,23.42
2019-03-06T20:17:08.846Z,23.39
2019-03-06T20:19:39.508Z,23.36
2019-03-06T20:22:10.164Z,23.33
2019-03-06T20:24:40.285Z,23.31
2019-03-06T20:27:10.233Z,23.28
2019-03-06T20:29:40.023Z,23.25
2019-03-06T20:32:09.872Z,23.22
2019-03-06T20:34:40.474Z,23.20
2019-03-06T20:37:11.036Z,23.16
2019-03-06T20:39:42.519Z,23.15
2019-03-06T20:42:12.777Z,23.12
2019-03-06T20:44:45.536Z,23.11
2019-03-06T20:47:18.159Z,23.09
2019-03-06T20:49:48.557Z,23.08
2019-03-06T20:52:18.666Z,23.06
2019-03-06T20:54:48.235Z,23.03
2019-03-06T20:57:18.107Z,23.00
2019-03-06T20:59:48.612Z,22.94
2019-03-06T21:02:19.397Z,22.89
2019-03-06T21:04:49.284Z,22.84
2019-03-06T21:07:19.111Z,22.80
2019-03-06T21:09:48.744Z,22.77
2019-03-06T21:12:18.482Z,22.73
2019-03-06T21:14:48.387Z,22.69
2019-03-06T21:17:17.791Z,22.66
2019-03-06T21:19:48.242Z,22.66
2019-03-06T21:22:18.664Z,22.65
2019-03-06T21:24:48.180Z,22.60
2019-03-06T21:27:17.871Z,22.55
2019-03-06T21:29:47.412Z,22.52
2019-03-06T21:32:17.727Z,22.48
2019-03-06T21:34:47.618Z,22.43
2019-03-06T21:37:17.675Z,22.40
2019-03-06T21:39:47.097Z,22.37
2019-03-06T21:42:16.562Z,22.34
2019-03-06T21:44:46.095Z,22.30
2019-03-06T21:47:15.936Z,22.28
2019-03-06T21:49:45.818Z,22.25
2019-03-06T21:52:15.382Z,22.22
2019-03-06T21:54:46.786Z,22.22
2019-03-06T21:57:16.092Z,22.20
2019-03-06T21:59:45.696Z,22.20
2019-03-06T22:02:14.771Z,22.21
2019-03-06T22:04:44.044Z,22.21
2019-03-06T22:07:13.263Z,22.21
2019-03-06T22:09:42.534Z,22.21
2019-03-06T22:12:11.995Z,22.20
2019-03-06T22:14:41.100Z,22.19
2019-03-06T22:17:10.058Z,22.17
2019-03-06T22:19:39.279Z,22.15
2019-03-06T22:22:08.229Z,22.15
2019-03-06T22:24:37.417Z,22.13
2019-03-06T22:27:06.379Z,22.11
2019-03-06T22:29:35.547Z,22.08
2019-03-06T22:32:04.706Z,22.08
2019-03-06T22:34:33.701Z,22.06
2019-03-06T22:37:02.629Z,22.04
2019-03-06T22:39:31.604Z,22.02
2019-03-06T22:42:00.465Z,22.00
2019-03-06T22:44:29.462Z,21.98
2019-03-06T22:46:58.404Z,21.95
2019-03-06T22:49:27.373Z,21.92
2019-03-06T22:51:56.114Z,21.90
2019-03-06T22:54:25.104Z,21.87
2019-03-06T22:56:54.193Z,21.86
2019-03-06T22:59:23.293Z,21.83
2019-03-06T23:01:53.279Z,21.82
2019-03-06T23:04:22.385Z,21.80
2019-03-06T23:06:51.261Z,21.78
2019-03-06T23:09:20.254Z,21.76
2019-03-06T23:11:49.181Z,21.73
2019-03-06T23:14:18.076Z,21.72
2019-03-06T23:16:46.865Z,21.69
2019-03-06T23:19:15.736Z,21.67
2019-03-06T23:21:44.713Z,21.65
2019-03-06T23:24:13.705Z,21.62
2019-03-06T23:26:43.351Z,21.59
2019-03-06T23:29:12.285Z,21.58
2019-03-06T23:31:41.474Z,21.56
2019-03-06T23:34:10.705Z,21.55
2019-03-06T23:36:39.763Z,21.53
2019-03-06T23:39:12.622Z,21.50
2019-03-06T23:41:41.643Z,21.48
2019-03-06T23:44:10.587Z,21.46
2019-03-06T23:46:39.395Z,21.44
2019-03-06T23:49:08.344Z,21.42
2019-03-06T23:51:41.537Z,21.39
2019-03-06T23:54:10.478Z,21.38
2019-03-06T23:56:39.440Z,21.36
2019-03-06T23:59:08.395Z,21.33
